sensor_id;sensor_type;location;lat;lon;timestamp;temperature;humidity
20204;DHT22;10261;49.010;12.034;2023-02-08T00:00:14;-1.30;99.90
20204;DHT22;10261;49.010;12.034;2023-02-08T00:01:19;-1.30;99.90
20204;DHT22;10261;49.010;12.034;2023-02-08T00:02:22;-1.40;99.90
20204;DHT22;10261;49.010;12.034;2023-02-08T00:03:26;-1.40;99.90
20204;DHT22;10261;49.010;12.034;2023-02-08T00:04:29;-1.40;99.90
20204;DHT22;10261;49.010;12.034;2023-02-08T00:05:31;-1.50;99.90
20204;DHT22;10261;49.010;12.034;2023-02-08T00:06:35;-1.50;99.90
20204;DHT22;10261;49.010;12.034;2023-02-08T00:07:37;-1.50;99.90
20204;DHT22;10261;49.010;12.034;2023-02-08T00:08:39;-1.40;99.90
20204;DHT22;10261;49.010;12.034;2023-02-08T00:09:41;-1.40;99.90
20204;DHT22;10261;49.010;12.034;2023-02-08T00:10:44;-1.50;99.90
20204;DHT22;10261;49.010;12.034;2023-02-08T00:11:46;-1.40;99.90
20204;DHT22;10261;49.010;12.034;2023-02-08T00:12:49;-1.50;99.90
20204;DHT22;10261;49.010;12.034;2023-02-08T00:13:52;-1.40;99.90
20204;DHT22;10261;49.010;12.034;2023-02-08T00:14:55;-1.40;99.90
20204;DHT22;10261;49.010;12.034;2023-02-08T00:15:58;-1.40;99.90
20204;DHT22;10261;49.010;12.034;2023-02-08T00:17:01;-1.50;99.90
20204;DHT22;10261;49.010;12.034;2023-02-08T00:18:03;-1.50;99.90
20204;DHT22;10261;49.010;12.034;2023-02-08T00:19:07;-1.50;99.90
20204;DHT22;10261;49.010;12.034;2023-02-08T00:20:10;-1.50;99.90
20204;DHT22;10261;49.010;12.034;2023-02-08T00:21:15;-1.50;99.90
20204;DHT22;10261;49.010;12.034;2023-02-08T00:22:17;-1.50;99.90
20204;DHT22;10261;49.010;12.034;2023-02-08T00:23:20;-1.50;99.90
20204;DHT22;10261;49.010;12.034;2023-02-08T00:24:22;-1.50;99.90
20204;DHT22;10261;49.010;12.034;2023-02-08T00:25:25;-1.50;99.90
20204;DHT22;10261;49.010;12.034;2023-02-08T00:26:27;-1.50;99.90
20204;DHT22;10261;49.010;12.034;2023-02-08T00:27:30;-1.60;99.90
20204;DHT22;10261;49.010;12.034;2023-02-08T00:28:32;-1.60;99.90
20204;DHT22;10261;49.010;12.034;2023-02-08T00:29:35;-1.60;99.90
20204;DHT22;10261;49.010;12.034;2023-02-08T00:30:37;-1.60;99.90
20204;DHT22;10261;49.010;12.034;2023-02-08T00:31:41;-1.60;99.90
20204;DHT22;10261;49.010;12.034;2023-02-08T00:32:43;-1.60;99.90
20204;DHT22;10261;49.010;12.034;2023-02-08T00:33:46;-1.60;99.90
20204;DHT22;10261;49.010;12.034;2023-02-08T00:34:49;-1.60;99.90
20204;DHT22;10261;49.010;12.034;2023-02-08T00:35:57;-1.60;99.90
20204;DHT22;10261;49.010;12.034;2023-02-08T00:36:59;-1.60;99.90
20204;DHT22;10261;49.010;12.034;2023-02-08T00:38:02;-1.60;99.90
20204;DHT22;10261;49.010;12.034;2023-02-08T00:39:04;-2.20;99.90
20204;DHT22;10261;49.010;12.034;2023-02-08T00:40:08;-1.70;99.90
20204;DHT22;10261;49.010;12.034;2023-02-08T00:41:10;-1.60;99.90
20204;DHT22;10261;49.010;12.034;2023-02-08T00:42:13;-1.60;99.90
20204;DHT22;10261;49.010;12.034;2023-02-08T00:43:15;-1.50;99.90
20204;DHT22;10261;49.010;12.034;2023-02-08T00:44:18;-1.60;99.90
20204;DHT22;10261;49.010;12.034;2023-02-08T00:45:21;-1.60;99.90
20204;DHT22;10261;49.010;12.034;2023-02-08T00:46:25;-1.70;99.90
20204;DHT22;10261;49.010;12.034;2023-02-08T00:47:28;-1.70;99.90
20204;DHT22;10261;49.010;12.034;2023-02-08T00:48:30;-1.70;99.90
20204;DHT22;10261;49.010;12.034;2023-02-08T00:49:33;-1.70;99.90
20204;DHT22;10261;49.010;12.034;2023-02-08T00:50:37;-1.70;99.90
20204;DHT22;10261;49.010;12.034;2023-02-08T00:51:40;-1.70;99.90
20204;DHT22;10261;49.010;12.034;2023-02-08T00:52:42;-1.80;99.90
20204;DHT22;10261;49.010;12.034;2023-02-08T00:53:45;-1.70;99.90
20204;DHT22;10261;49.010;12.034;2023-02-08T00:54:47;-1.80;99.90
20204;DHT22;10261;49.010;12.034;2023-02-08T00:55:50;-1.70;99.90
20204;DHT22;10261;49.010;12.034;2023-02-08T00:56:52;-1.70;99.90
20204;DHT22;10261;49.010;12.034;2023-02-08T00:57:55;-1.70;99.90
20204;DHT22;10261;49.010;12.034;2023-02-08T00:58:57;-1.70;99.90
20204;DHT22;10261;49.010;12.034;2023-02-08T01:00:00;-1.70;99.90
20204;DHT22;10261;49.010;12.034;2023-02-08T01:01:03;-1.70;99.90
20204;DHT22;10261;49.010;12.034;2023-02-08T01:02:07;-1.80;99.90
20204;DHT22;10261;49.010;12.034;2023-02-08T01:03:09;-1.80;99.90
20204;DHT22;10261;49.010;12.034;2023-02-08T01:04:13;-1.80;99.90
20204;DHT22;10261;49.010;12.034;2023-02-08T01:05:16;-1.80;99.90
20204;DHT22;10261;49.010;12.034;2023-02-08T01:06:19;-1.90;99.90
20204;DHT22;10261;49.010;12.034;2023-02-08T01:07:22;-1.90;99.90
20204;DHT22;10261;49.010;12.034;2023-02-08T01:08:24;-1.90;99.90
20204;DHT22;10261;49.010;12.034;2023-02-08T01:09:27;-1.90;99.90
20204;DHT22;10261;49.010;12.034;2023-02-08T01:10:29;-1.80;99.90
20204;DHT22;10261;49.010;12.034;2023-02-08T01:11:32;-1.90;99.90
20204;DHT22;10261;49.010;12.034;2023-02-08T01:12:34;-1.80;99.90
20204;DHT22;10261;49.010;12.034;2023-02-08T01:13:37;-1.90;99.90
20204;DHT22;10261;49.010;12.034;2023-02-08T01:14:39;-1.90;99.90
20204;DHT22;10261;49.010;12.034;2023-02-08T01:15:43;-1.80;99.90
20204;DHT22;10261;49.010;12.034;2023-02-08T01:16:45;-1.80;99.90
20204;DHT22;10261;49.010;12.034;2023-02-08T01:17:52;-1.80;99.90
20204;DHT22;10261;49.010;12.034;2023-02-08T01:18:56;-1.80;99.90
20204;DHT22;10261;49.010;12.034;2023-02-08T01:20:00;-1.80;99.90
20204;DHT22;10261;49.010;12.034;2023-02-08T01:21:06;-1.80;99.90
20204;DHT22;10261;49.010;12.034;2023-02-08T01:22:10;-1.90;99.90
20204;DHT22;10261;49.010;12.034;2023-02-08T01:23:13;-1.80;99.90
20204;DHT22;10261;49.010;12.034;2023-02-08T01:24:15;-1.80;99.90
20204;DHT22;10261;49.010;12.034;2023-02-08T01:25:18;-1.80;99.90
20204;DHT22;10261;49.010;12.034;2023-02-08T01:26:21;-1.90;99.90
20204;DHT22;10261;49.010;12.034;2023-02-08T01:27:24;-1.80;99.90
20204;DHT22;10261;49.010;12.034;2023-02-08T01:28:26;-1.90;99.90
20204;DHT22;10261;49.010;12.034;2023-02-08T01:29:29;-2.00;99.90
20204;DHT22;10261;49.010;12.034;2023-02-08T01:30:31;-1.90;99.90
20204;DHT22;10261;49.010;12.034;2023-02-08T01:31:37;-1.90;99.90
20204;DHT22;10261;49.010;12.034;2023-02-08T01:32:39;-2.00;99.90
20204;DHT22;10261;49.010;12.034;2023-02-08T01:33:42;-2.00;99.90
20204;DHT22;10261;49.010;12.034;2023-02-08T01:34:44;-1.90;99.90
20204;DHT22;10261;49.010;12.034;2023-02-08T01:35:49;-1.90;99.90
20204;DHT22;10261;49.010;12.034;2023-02-08T01:36:52;-2.00;99.90
20204;DHT22;10261;49.010;12.034;2023-02-08T01:37:56;-0.80;99.90
20204;DHT22;10261;49.010;12.034;2023-02-08T01:38:58;-1.90;99.90
20204;DHT22;10261;49.010;12.034;2023-02-08T01:40:01;-2.00;99.90
20204;DHT22;10261;49.010;12.034;2023-02-08T01:41:10;-2.00;99.90
20204;DHT22;10261;49.010;12.034;2023-02-08T01:42:16;-1.90;99.90
20204;DHT22;10261;49.010;12.034;2023-02-08T01:43:21;-2.00;99.90
20204;DHT22;10261;49.010;12.034;2023-02-08T01:45:17;-2.00;99.90
20204;DHT22;10261;49.010;12.034;2023-02-08T01:46:21;-2.00;99.90
20204;DHT22;10261;49.010;12.034;2023-02-08T01:47:24;-2.00;99.90
20204;DHT22;10261;49.010;12.034;2023-02-08T01:48:29;-1.90;99.90
20204;DHT22;10261;49.010;12.034;2023-02-08T01:49:35;-1.90;99.90
20204;DHT22;10261;49.010;12.034;2023-02-08T01:50:44;-2.00;99.90
20204;DHT22;10261;49.010;12.034;2023-02-08T01:51:56;-2.00;99.90
20204;DHT22;10261;49.010;12.034;2023-02-08T01:53:01;-2.10;99.90
20204;DHT22;10261;49.010;12.034;2023-02-08T01:54:06;-2.10;99.90
20204;DHT22;10261;49.010;12.034;2023-02-08T01:55:15;-2.10;99.90
20204;DHT22;10261;49.010;12.034;2023-02-08T01:56:22;-2.10;99.90
20204;DHT22;10261;49.010;12.034;2023-02-08T01:57:26;-2.10;99.90
20204;DHT22;10261;49.010;12.034;2023-02-08T01:58:32;-2.10;99.90
20204;DHT22;10261;49.010;12.034;2023-02-08T01:59:39;-1.90;99.90
20204;DHT22;10261;49.010;12.034;2023-02-08T02:00:42;-1.90;99.90
20204;DHT22;10261;49.010;12.034;2023-02-08T02:01:46;-1.90;99.90
20204;DHT22;10261;49.010;12.034;2023-02-08T02:02:51;-1.90;99.90
20204;DHT22;10261;49.010;12.034;2023-02-08T02:03:55;-1.90;99.90
20204;DHT22;10261;49.010;12.034;2023-02-08T02:04:57;-2.00;99.90
20204;DHT22;10261;49.010;12.034;2023-02-08T02:06:04;-2.10;99.90
20204;DHT22;10261;49.010;12.034;2023-02-08T02:07:07;-2.00;99.90
20204;DHT22;10261;49.010;12.034;2023-02-08T02:08:12;-2.10;99.90
20204;DHT22;10261;49.010;12.034;2023-02-08T02:09:18;-2.10;99.90
20204;DHT22;10261;49.010;12.034;2023-02-08T02:10:26;-2.00;99.90
20204;DHT22;10261;49.010;12.034;2023-02-08T02:11:28;-2.00;99.90
20204;DHT22;10261;49.010;12.034;2023-02-08T02:12:32;-2.00;99.90
20204;DHT22;10261;49.010;12.034;2023-02-08T02:13:36;-2.10;99.90
20204;DHT22;10261;49.010;12.034;2023-02-08T02:14:39;-2.10;99.90
20204;DHT22;10261;49.010;12.034;2023-02-08T02:15:43;-2.00;99.90
20204;DHT22;10261;49.010;12.034;2023-02-08T02:16:46;-2.00;99.90
20204;DHT22;10261;49.010;12.034;2023-02-08T02:17:49;-2.10;99.90
20204;DHT22;10261;49.010;12.034;2023-02-08T02:18:52;-2.10;99.90
20204;DHT22;10261;49.010;12.034;2023-02-08T02:20:02;-2.10;99.90
20204;DHT22;10261;49.010;12.034;2023-02-08T02:21:18;-2.20;99.90
20204;DHT22;10261;49.010;12.034;2023-02-08T02:26:05;-2.20;99.90
20204;DHT22;10261;49.010;12.034;2023-02-08T02:27:39;-2.30;99.90
20204;DHT22;10261;49.010;12.034;2023-02-08T02:30:39;-2.40;99.90
20204;DHT22;10261;49.010;12.034;2023-02-08T02:32:08;-2.30;99.90
20204;DHT22;10261;49.010;12.034;2023-02-08T02:33:21;-2.30;99.90
20204;DHT22;10261;49.010;12.034;2023-02-08T02:34:30;-2.30;99.90
20204;DHT22;10261;49.010;12.034;2023-02-08T02:35:44;-2.30;99.90
20204;DHT22;10261;49.010;12.034;2023-02-08T02:36:51;-2.30;99.90
20204;DHT22;10261;49.010;12.034;2023-02-08T02:38:02;-2.30;99.90
20204;DHT22;10261;49.010;12.034;2023-02-08T02:39:12;-2.30;99.90
20204;DHT22;10261;49.010;12.034;2023-02-08T02:40:22;-2.30;99.90
20204;DHT22;10261;49.010;12.034;2023-02-08T02:41:32;-2.30;99.90
20204;DHT22;10261;49.010;12.034;2023-02-08T02:43:01;-2.30;99.90
20204;DHT22;10261;49.010;12.034;2023-02-08T02:44:38;-2.30;99.90
20204;DHT22;10261;49.010;12.034;2023-02-08T02:45:48;-2.20;99.90
20204;DHT22;10261;49.010;12.034;2023-02-08T02:47:00;-2.20;99.90
20204;DHT22;10261;49.010;12.034;2023-02-08T02:48:09;-2.30;99.90
20204;DHT22;10261;49.010;12.034;2023-02-08T02:49:16;-2.30;99.90
20204;DHT22;10261;49.010;12.034;2023-02-08T02:50:23;-2.30;99.90
20204;DHT22;10261;49.010;12.034;2023-02-08T02:51:37;-2.30;99.90
20204;DHT22;10261;49.010;12.034;2023-02-08T02:52:45;-2.40;99.90
20204;DHT22;10261;49.010;12.034;2023-02-08T02:53:53;-2.40;99.90
20204;DHT22;10261;49.010;12.034;2023-02-08T02:54:59;-2.40;99.90
20204;DHT22;10261;49.010;12.034;2023-02-08T02:56:05;-2.40;99.90
20204;DHT22;10261;49.010;12.034;2023-02-08T02:57:13;-2.30;99.90
20204;DHT22;10261;49.010;12.034;2023-02-08T02:58:18;-2.30;99.90
20204;DHT22;10261;49.010;12.034;2023-02-08T02:59:24;-2.40;99.90
20204;DHT22;10261;49.010;12.034;2023-02-08T03:00:28;-2.40;99.90
20204;DHT22;10261;49.010;12.034;2023-02-08T03:01:32;-2.40;99.90
20204;DHT22;10261;49.010;12.034;2023-02-08T03:02:37;-2.40;99.90
20204;DHT22;10261;49.010;12.034;2023-02-08T03:03:39;-2.40;99.90
20204;DHT22;10261;49.010;12.034;2023-02-08T03:04:48;-2.40;99.90
20204;DHT22;10261;49.010;12.034;2023-02-08T03:05:51;-2.40;99.90
20204;DHT22;10261;49.010;12.034;2023-02-08T03:07:03;-2.40;99.90
20204;DHT22;10261;49.010;12.034;2023-02-08T03:08:15;-2.40;99.90
20204;DHT22;10261;49.010;12.034;2023-02-08T03:09:38;-2.30;99.90
20204;DHT22;10261;49.010;12.034;2023-02-08T03:11:14;-2.40;99.90
20204;DHT22;10261;49.010;12.034;2023-02-08T03:12:33;-2.40;99.90
20204;DHT22;10261;49.010;12.034;2023-02-08T03:13:46;-2.40;99.90
20204;DHT22;10261;49.010;12.034;2023-02-08T03:14:57;-2.40;99.90
20204;DHT22;10261;49.010;12.034;2023-02-08T03:16:13;-2.40;99.90
20204;DHT22;10261;49.010;12.034;2023-02-08T03:17:32;-2.40;99.90
20204;DHT22;10261;49.010;12.034;2023-02-08T03:18:50;-2.40;99.90
20204;DHT22;10261;49.010;12.034;2023-02-08T03:20:04;-2.40;99.90
20204;DHT22;10261;49.010;12.034;2023-02-08T03:21:11;-2.40;99.90
20204;DHT22;10261;49.010;12.034;2023-02-08T03:22:20;-2.50;99.90
20204;DHT22;10261;49.010;12.034;2023-02-08T03:23:29;-2.50;99.90
20204;DHT22;10261;49.010;12.034;2023-02-08T03:24:36;-2.50;99.90
20204;DHT22;10261;49.010;12.034;2023-02-08T03:25:48;-2.50;99.90
20204;DHT22;10261;49.010;12.034;2023-02-08T03:26:54;-2.60;99.90
20204;DHT22;10261;49.010;12.034;2023-02-08T03:28:04;-2.50;99.90
20204;DHT22;10261;49.010;12.034;2023-02-08T03:29:15;-2.50;99.90
20204;DHT22;10261;49.010;12.034;2023-02-08T03:30:24;-2.50;99.90
20204;DHT22;10261;49.010;12.034;2023-02-08T03:31:33;-2.60;99.90
20204;DHT22;10261;49.010;12.034;2023-02-08T03:32:43;-2.60;99.90
20204;DHT22;10261;49.010;12.034;2023-02-08T03:33:52;-2.60;99.90
20204;DHT22;10261;49.010;12.034;2023-02-08T03:34:59;-2.60;99.90
20204;DHT22;10261;49.010;12.034;2023-02-08T03:36:09;-2.50;99.90
20204;DHT22;10261;49.010;12.034;2023-02-08T03:37:15;-2.60;99.90
20204;DHT22;10261;49.010;12.034;2023-02-08T03:38:22;-2.60;99.90
20204;DHT22;10261;49.010;12.034;2023-02-08T03:39:29;-2.60;99.90
20204;DHT22;10261;49.010;12.034;2023-02-08T03:40:35;-2.60;99.90
20204;DHT22;10261;49.010;12.034;2023-02-08T03:41:43;-2.50;99.90
20204;DHT22;10261;49.010;12.034;2023-02-08T03:42:48;-2.60;99.90
20204;DHT22;10261;49.010;12.034;2023-02-08T03:43:56;-2.60;99.90
20204;DHT22;10261;49.010;12.034;2023-02-08T03:45:02;-2.60;99.90
20204;DHT22;10261;49.010;12.034;2023-02-08T03:46:10;-2.60;99.90
20204;DHT22;10261;49.010;12.034;2023-02-08T03:47:15;-2.60;99.90
20204;DHT22;10261;49.010;12.034;2023-02-08T03:48:20;-2.70;99.90
20204;DHT22;10261;49.010;12.034;2023-02-08T03:49:29;-2.70;99.90
20204;DHT22;10261;49.010;12.034;2023-02-08T03:50:35;-2.70;99.90
20204;DHT22;10261;49.010;12.034;2023-02-08T03:51:39;-2.60;99.90
20204;DHT22;10261;49.010;12.034;2023-02-08T03:52:43;-2.60;99.90
20204;DHT22;10261;49.010;12.034;2023-02-08T03:53:47;-2.60;99.90
20204;DHT22;10261;49.010;12.034;2023-02-08T03:54:54;-2.70;99.90
20204;DHT22;10261;49.010;12.034;2023-02-08T03:56:00;-2.70;99.90
20204;DHT22;10261;49.010;12.034;2023-02-08T03:57:10;-2.80;99.90
20204;DHT22;10261;49.010;12.034;2023-02-08T03:58:18;-2.70;99.90
20204;DHT22;10261;49.010;12.034;2023-02-08T03:59:26;-2.80;99.90
20204;DHT22;10261;49.010;12.034;2023-02-08T04:00:29;-2.80;99.90
20204;DHT22;10261;49.010;12.034;2023-02-08T04:01:39;-2.80;99.90
20204;DHT22;10261;49.010;12.034;2023-02-08T04:02:47;-2.70;99.90
20204;DHT22;10261;49.010;12.034;2023-02-08T04:03:54;-2.70;99.90
20204;DHT22;10261;49.010;12.034;2023-02-08T04:04:59;-2.70;99.90
20204;DHT22;10261;49.010;12.034;2023-02-08T04:06:04;-2.80;99.90
20204;DHT22;10261;49.010;12.034;2023-02-08T04:07:06;-2.80;99.90
20204;DHT22;10261;49.010;12.034;2023-02-08T04:08:09;-2.70;99.90
20204;DHT22;10261;49.010;12.034;2023-02-08T04:09:11;-2.60;99.90
20204;DHT22;10261;49.010;12.034;2023-02-08T04:10:15;-2.70;99.90
20204;DHT22;10261;49.010;12.034;2023-02-08T04:11:17;-2.70;99.90
20204;DHT22;10261;49.010;12.034;2023-02-08T04:12:19;-2.70;99.90
20204;DHT22;10261;49.010;12.034;2023-02-08T04:13:21;-2.70;99.90
20204;DHT22;10261;49.010;12.034;2023-02-08T04:14:25;-2.70;99.90
20204;DHT22;10261;49.010;12.034;2023-02-08T04:15:26;-2.60;99.90
20204;DHT22;10261;49.010;12.034;2023-02-08T04:16:30;-2.60;99.90
20204;DHT22;10261;49.010;12.034;2023-02-08T04:17:32;-2.60;99.90
20204;DHT22;10261;49.010;12.034;2023-02-08T04:18:35;-2.70;99.90
20204;DHT22;10261;49.010;12.034;2023-02-08T04:19:37;-2.70;99.90
20204;DHT22;10261;49.010;12.034;2023-02-08T04:20:41;-2.70;99.90
20204;DHT22;10261;49.010;12.034;2023-02-08T04:21:44;-2.70;99.90
20204;DHT22;10261;49.010;12.034;2023-02-08T04:22:46;-2.70;99.90
20204;DHT22;10261;49.010;12.034;2023-02-08T04:23:49;-2.70;99.90
20204;DHT22;10261;49.010;12.034;2023-02-08T04:24:51;-2.70;99.90
20204;DHT22;10261;49.010;12.034;2023-02-08T04:25:54;-2.80;99.90
20204;DHT22;10261;49.010;12.034;2023-02-08T04:26:56;-2.80;99.90
20204;DHT22;10261;49.010;12.034;2023-02-08T04:27:59;-2.70;99.90
20204;DHT22;10261;49.010;12.034;2023-02-08T04:29:01;-2.80;99.90
20204;DHT22;10261;49.010;12.034;2023-02-08T04:30:05;-2.80;99.90
20204;DHT22;10261;49.010;12.034;2023-02-08T04:31:07;-2.70;99.90
20204;DHT22;10261;49.010;12.034;2023-02-08T04:32:10;-2.80;99.90
20204;DHT22;10261;49.010;12.034;2023-02-08T04:33:14;-2.70;99.90
20204;DHT22;10261;49.010;12.034;2023-02-08T04:34:17;-2.70;99.90
20204;DHT22;10261;49.010;12.034;2023-02-08T04:35:19;-2.70;99.90
20204;DHT22;10261;49.010;12.034;2023-02-08T04:36:23;-2.70;99.90
20204;DHT22;10261;49.010;12.034;2023-02-08T04:37:26;-2.80;99.90
20204;DHT22;10261;49.010;12.034;2023-02-08T04:38:28;-2.80;99.90
20204;DHT22;10261;49.010;12.034;2023-02-08T04:39:31;-2.90;99.90
20204;DHT22;10261;49.010;12.034;2023-02-08T04:40:33;-2.90;99.90
20204;DHT22;10261;49.010;12.034;2023-02-08T04:41:36;-2.90;99.90
20204;DHT22;10261;49.010;12.034;2023-02-08T04:42:38;-2.90;99.90
20204;DHT22;10261;49.010;12.034;2023-02-08T04:43:41;-2.90;99.90
20204;DHT22;10261;49.010;12.034;2023-02-08T04:44:43;-2.80;99.90
20204;DHT22;10261;49.010;12.034;2023-02-08T04:45:48;-2.80;99.90
20204;DHT22;10261;49.010;12.034;2023-02-08T04:46:51;-2.80;99.90
20204;DHT22;10261;49.010;12.034;2023-02-08T04:47:54;-2.80;99.90
20204;DHT22;10261;49.010;12.034;2023-02-08T04:48:56;-2.90;99.90
20204;DHT22;10261;49.010;12.034;2023-02-08T04:49:59;-2.90;99.90
20204;DHT22;10261;49.010;12.034;2023-02-08T04:51:01;-2.90;99.90
20204;DHT22;10261;49.010;12.034;2023-02-08T04:52:06;-2.90;99.90
20204;DHT22;10261;49.010;12.034;2023-02-08T04:53:08;-2.90;99.90
20204;DHT22;10261;49.010;12.034;2023-02-08T04:54:11;-2.90;99.90
20204;DHT22;10261;49.010;12.034;2023-02-08T04:55:13;-2.90;99.90
20204;DHT22;10261;49.010;12.034;2023-02-08T04:56:16;-2.90;99.90
20204;DHT22;10261;49.010;12.034;2023-02-08T04:57:18;-2.90;99.90
20204;DHT22;10261;49.010;12.034;2023-02-08T04:58:22;-2.90;99.90
20204;DHT22;10261;49.010;12.034;2023-02-08T04:59:24;-2.90;99.90
20204;DHT22;10261;49.010;12.034;2023-02-08T05:00:27;-2.90;99.90
20204;DHT22;10261;49.010;12.034;2023-02-08T05:01:29;-2.90;99.90
20204;DHT22;10261;49.010;12.034;2023-02-08T05:02:32;-2.80;99.90
20204;DHT22;10261;49.010;12.034;2023-02-08T05:03:34;-2.90;99.90
20204;DHT22;10261;49.010;12.034;2023-02-08T05:04:37;-2.90;99.90
20204;DHT22;10261;49.010;12.034;2023-02-08T05:05:39;-3.00;99.90
20204;DHT22;10261;49.010;12.034;2023-02-08T05:06:43;-3.00;99.90
20204;DHT22;10261;49.010;12.034;2023-02-08T05:07:49;-3.00;99.90
20204;DHT22;10261;49.010;12.034;2023-02-08T05:08:52;-2.90;99.90
20204;DHT22;10261;49.010;12.034;2023-02-08T05:09:54;-2.90;99.90
20204;DHT22;10261;49.010;12.034;2023-02-08T05:10:57;-2.90;99.90
20204;DHT22;10261;49.010;12.034;2023-02-08T05:11:59;-2.90;99.90
20204;DHT22;10261;49.010;12.034;2023-02-08T05:13:02;-2.90;99.90
20204;DHT22;10261;49.010;12.034;2023-02-08T05:14:04;-3.00;99.90
20204;DHT22;10261;49.010;12.034;2023-02-08T05:15:08;-3.00;99.90
20204;DHT22;10261;49.010;12.034;2023-02-08T05:16:10;-3.00;99.90
20204;DHT22;10261;49.010;12.034;2023-02-08T05:17:13;-3.00;99.90
20204;DHT22;10261;49.010;12.034;2023-02-08T05:18:15;-2.90;99.90
20204;DHT22;10261;49.010;12.034;2023-02-08T05:19:18;-3.00;99.90
20204;DHT22;10261;49.010;12.034;2023-02-08T05:20:20;-3.00;99.90
20204;DHT22;10261;49.010;12.034;2023-02-08T05:21:23;-3.00;99.90
20204;DHT22;10261;49.010;12.034;2023-02-08T05:22:25;-3.00;99.90
20204;DHT22;10261;49.010;12.034;2023-02-08T05:23:29;-3.10;99.90
20204;DHT22;10261;49.010;12.034;2023-02-08T05:24:32;-3.10;99.90
20204;DHT22;10261;49.010;12.034;2023-02-08T05:25:36;-3.10;99.90
20204;DHT22;10261;49.010;12.034;2023-02-08T05:26:39;-3.30;99.90
20204;DHT22;10261;49.010;12.034;2023-02-08T05:27:42;-3.30;99.90
20204;DHT22;10261;49.010;12.034;2023-02-08T05:28:44;-3.20;99.90
20204;DHT22;10261;49.010;12.034;2023-02-08T05:29:47;-3.20;99.90
20204;DHT22;10261;49.010;12.034;2023-02-08T05:30:49;-3.10;99.90
20204;DHT22;10261;49.010;12.034;2023-02-08T05:31:52;-3.10;99.90
20204;DHT22;10261;49.010;12.034;2023-02-08T05:32:54;-3.10;99.90
20204;DHT22;10261;49.010;12.034;2023-02-08T05:33:56;-3.10;99.90
20204;DHT22;10261;49.010;12.034;2023-02-08T05:34:58;-3.10;99.90
20204;DHT22;10261;49.010;12.034;2023-02-08T05:36:01;-3.00;99.90
20204;DHT22;10261;49.010;12.034;2023-02-08T05:37:05;-3.00;99.90
20204;DHT22;10261;49.010;12.034;2023-02-08T05:38:09;-3.00;99.90
20204;DHT22;10261;49.010;12.034;2023-02-08T05:39:12;-3.00;99.90
20204;DHT22;10261;49.010;12.034;2023-02-08T05:40:15;-3.00;99.90
20204;DHT22;10261;49.010;12.034;2023-02-08T05:41:17;-3.00;99.90
20204;DHT22;10261;49.010;12.034;2023-02-08T05:42:20;-3.00;99.90
20204;DHT22;10261;49.010;12.034;2023-02-08T05:43:22;-3.10;99.90
20204;DHT22;10261;49.010;12.034;2023-02-08T05:44:25;-3.00;99.90
20204;DHT22;10261;49.010;12.034;2023-02-08T05:45:27;-3.10;99.90
20204;DHT22;10261;49.010;12.034;2023-02-08T05:46:30;-3.10;99.90
20204;DHT22;10261;49.010;12.034;2023-02-08T05:47:32;-3.10;99.90
20204;DHT22;10261;49.010;12.034;2023-02-08T05:48:35;-3.10;99.90
20204;DHT22;10261;49.010;12.034;2023-02-08T05:49:37;-3.10;99.90
20204;DHT22;10261;49.010;12.034;2023-02-08T05:50:40;-3.10;99.90
20204;DHT22;10261;49.010;12.034;2023-02-08T05:51:43;-3.10;99.90
20204;DHT22;10261;49.010;12.034;2023-02-08T05:52:46;-3.10;99.90
20204;DHT22;10261;49.010;12.034;2023-02-08T05:53:48;-3.10;99.90
20204;DHT22;10261;49.010;12.034;2023-02-08T05:54:52;-3.20;99.90
20204;DHT22;10261;49.010;12.034;2023-02-08T05:55:56;-3.20;99.90
20204;DHT22;10261;49.010;12.034;2023-02-08T05:56:58;-3.10;99.90
20204;DHT22;10261;49.010;12.034;2023-02-08T05:58:01;-3.10;99.90
20204;DHT22;10261;49.010;12.034;2023-02-08T05:59:03;-3.00;99.90
20204;DHT22;10261;49.010;12.034;2023-02-08T06:00:07;-3.00;99.90
20204;DHT22;10261;49.010;12.034;2023-02-08T06:01:10;-3.00;99.90
20204;DHT22;10261;49.010;12.034;2023-02-08T06:02:13;-3.00;99.90
20204;DHT22;10261;49.010;12.034;2023-02-08T06:03:15;-3.00;99.90
20204;DHT22;10261;49.010;12.034;2023-02-08T06:04:57;-3.10;99.90
20204;DHT22;10261;49.010;12.034;2023-02-08T06:06:00;-3.00;99.90
20204;DHT22;10261;49.010;12.034;2023-02-08T06:07:02;-3.10;99.90
20204;DHT22;10261;49.010;12.034;2023-02-08T06:08:06;-3.10;99.90
20204;DHT22;10261;49.010;12.034;2023-02-08T06:09:08;-3.10;99.90
20204;DHT22;10261;49.010;12.034;2023-02-08T06:10:14;-3.10;99.90
20204;DHT22;10261;49.010;12.034;2023-02-08T06:11:16;-3.10;99.90
20204;DHT22;10261;49.010;12.034;2023-02-08T06:12:22;-3.10;99.90
20204;DHT22;10261;49.010;12.034;2023-02-08T06:13:25;-3.10;99.90
20204;DHT22;10261;49.010;12.034;2023-02-08T06:14:27;-3.10;99.90
20204;DHT22;10261;49.010;12.034;2023-02-08T06:15:30;-3.10;99.90
20204;DHT22;10261;49.010;12.034;2023-02-08T06:16:33;-3.10;99.90
20204;DHT22;10261;49.010;12.034;2023-02-08T06:17:36;-3.20;99.90
20204;DHT22;10261;49.010;12.034;2023-02-08T06:20:19;-3.10;99.90
20204;DHT22;10261;49.010;12.034;2023-02-08T06:21:22;-3.20;99.90
20204;DHT22;10261;49.010;12.034;2023-02-08T06:22:25;-3.20;99.90
20204;DHT22;10261;49.010;12.034;2023-02-08T06:23:27;-3.20;99.90
20204;DHT22;10261;49.010;12.034;2023-02-08T06:24:30;-3.20;99.90
20204;DHT22;10261;49.010;12.034;2023-02-08T06:25:34;-3.20;99.90
20204;DHT22;10261;49.010;12.034;2023-02-08T06:26:36;-3.20;99.90
20204;DHT22;10261;49.010;12.034;2023-02-08T06:27:38;-3.20;99.90
20204;DHT22;10261;49.010;12.034;2023-02-08T06:28:41;-3.30;99.90
20204;DHT22;10261;49.010;12.034;2023-02-08T06:29:43;-3.30;99.90
20204;DHT22;10261;49.010;12.034;2023-02-08T06:30:48;-3.30;99.90
20204;DHT22;10261;49.010;12.034;2023-02-08T06:31:50;-3.30;99.90
20204;DHT22;10261;49.010;12.034;2023-02-08T06:32:53;-3.30;99.90
20204;DHT22;10261;49.010;12.034;2023-02-08T06:33:55;-3.30;99.90
20204;DHT22;10261;49.010;12.034;2023-02-08T06:34:58;-3.20;99.90
20204;DHT22;10261;49.010;12.034;2023-02-08T06:36:00;-3.20;99.90
20204;DHT22;10261;49.010;12.034;2023-02-08T06:37:03;-3.20;99.90
20204;DHT22;10261;49.010;12.034;2023-02-08T06:38:06;-3.20;99.90
20204;DHT22;10261;49.010;12.034;2023-02-08T06:39:09;-3.20;99.90
20204;DHT22;10261;49.010;12.034;2023-02-08T06:40:11;-3.30;99.90
20204;DHT22;10261;49.010;12.034;2023-02-08T06:41:15;-3.20;99.90
20204;DHT22;10261;49.010;12.034;2023-02-08T06:42:17;-3.20;99.90
20204;DHT22;10261;49.010;12.034;2023-02-08T06:43:20;-3.20;99.90
20204;DHT22;10261;49.010;12.034;2023-02-08T06:44:23;-3.20;99.90
20204;DHT22;10261;49.010;12.034;2023-02-08T06:45:26;-3.20;99.90
20204;DHT22;10261;49.010;12.034;2023-02-08T06:46:28;-3.10;99.90
20204;DHT22;10261;49.010;12.034;2023-02-08T06:47:31;-3.20;99.90
20204;DHT22;10261;49.010;12.034;2023-02-08T06:48:33;-3.10;99.90
20204;DHT22;10261;49.010;12.034;2023-02-08T06:49:36;-3.20;99.90
20204;DHT22;10261;49.010;12.034;2023-02-08T06:50:38;-3.20;99.90